sensor_id;sensor_type;location;lat;lon;timestamp;temperature;humidity
16441;DHT22;8330;-33.858;151.184;2024-01-16T00:01:27;23.10;99.90
16441;DHT22;8330;-33.858;151.184;2024-01-16T00:03:58;23.20;99.90
16441;DHT22;8330;-33.858;151.184;2024-01-16T00:06:31;23.30;99.90
16441;DHT22;8330;-33.858;151.184;2024-01-16T00:09:03;23.40;99.90
16441;DHT22;8330;-33.858;151.184;2024-01-16T00:11:34;23.50;99.90
16441;DHT22;8330;-33.858;151.184;2024-01-16T00:14:09;23.50;99.90
16441;DHT22;8330;-33.858;151.184;2024-01-16T00:16:43;23.60;99.90
16441;DHT22;8330;-33.858;151.184;2024-01-16T00:19:14;23.80;99.90
16441;DHT22;8330;-33.858;151.184;2024-01-16T00:21:46;23.80;99.90
16441;DHT22;8330;-33.858;151.184;2024-01-16T00:24:19;23.90;99.90
16441;DHT22;8330;-33.858;151.184;2024-01-16T00:26:49;24.10;99.90
16441;DHT22;8330;-33.858;151.184;2024-01-16T00:29:20;24.10;99.90
16441;DHT22;8330;-33.858;151.184;2024-01-16T00:31:51;24.10;99.90
16441;DHT22;8330;-33.858;151.184;2024-01-16T00:34:22;24.20;99.90
16441;DHT22;8330;-33.858;151.184;2024-01-16T00:36:53;24.10;99.90
16441;DHT22;8330;-33.858;151.184;2024-01-16T00:39:25;24.10;99.90
16441;DHT22;8330;-33.858;151.184;2024-01-16T00:41:56;24.10;99.90
16441;DHT22;8330;-33.858;151.184;2024-01-16T00:44:28;24.00;99.90
16441;DHT22;8330;-33.858;151.184;2024-01-16T00:46:58;24.00;99.90
16441;DHT22;8330;-33.858;151.184;2024-01-16T00:49:30;23.90;99.90
16441;DHT22;8330;-33.858;151.184;2024-01-16T00:52:00;23.90;99.90
16441;DHT22;8330;-33.858;151.184;2024-01-16T00:54:33;23.90;99.90
16441;DHT22;8330;-33.858;151.184;2024-01-16T00:57:04;23.90;99.90
16441;DHT22;8330;-33.858;151.184;2024-01-16T00:59:35;23.90;99.90
16441;DHT22;8330;-33.858;151.184;2024-01-16T01:02:05;23.90;99.90
16441;DHT22;8330;-33.858;151.184;2024-01-16T01:04:37;23.90;99.90
16441;DHT22;8330;-33.858;151.184;2024-01-16T01:07:09;23.90;99.90
16441;DHT22;8330;-33.858;151.184;2024-01-16T01:09:44;23.90;99.90
16441;DHT22;8330;-33.858;151.184;2024-01-16T01:12:15;24.00;99.90
16441;DHT22;8330;-33.858;151.184;2024-01-16T01:14:46;24.00;99.90
16441;DHT22;8330;-33.858;151.184;2024-01-16T01:17:20;23.90;99.90
16441;DHT22;8330;-33.858;151.184;2024-01-16T01:19:50;23.90;99.90
16441;DHT22;8330;-33.858;151.184;2024-01-16T01:22:21;23.80;99.90
16441;DHT22;8330;-33.858;151.184;2024-01-16T01:24:54;23.70;99.90
16441;DHT22;8330;-33.858;151.184;2024-01-16T01:27:25;23.70;99.90
16441;DHT22;8330;-33.858;151.184;2024-01-16T01:29:56;23.60;99.90
16441;DHT22;8330;-33.858;151.184;2024-01-16T01:32:26;23.60;99.90
16441;DHT22;8330;-33.858;151.184;2024-01-16T01:34:57;23.50;99.90
16441;DHT22;8330;-33.858;151.184;2024-01-16T01:37:28;23.40;99.90
16441;DHT22;8330;-33.858;151.184;2024-01-16T01:40:00;23.40;99.90
16441;DHT22;8330;-33.858;151.184;2024-01-16T01:42:31;23.30;99.90
16441;DHT22;8330;-33.858;151.184;2024-01-16T01:45:02;23.20;99.90
16441;DHT22;8330;-33.858;151.184;2024-01-16T01:47:33;23.20;99.90
16441;DHT22;8330;-33.858;151.184;2024-01-16T01:50:04;23.30;99.90
16441;DHT22;8330;-33.858;151.184;2024-01-16T01:52:37;23.40;99.90
16441;DHT22;8330;-33.858;151.184;2024-01-16T01:55:12;23.30;99.90
16441;DHT22;8330;-33.858;151.184;2024-01-16T01:57:44;23.40;99.90
16441;DHT22;8330;-33.858;151.184;2024-01-16T02:00:15;23.40;99.90
16441;DHT22;8330;-33.858;151.184;2024-01-16T02:02:45;23.40;99.90
16441;DHT22;8330;-33.858;151.184;2024-01-16T02:05:16;23.60;99.90
16441;DHT22;8330;-33.858;151.184;2024-01-16T02:07:47;23.50;99.90
16441;DHT22;8330;-33.858;151.184;2024-01-16T02:10:20;23.50;99.90
16441;DHT22;8330;-33.858;151.184;2024-01-16T02:12:51;23.60;99.90
16441;DHT22;8330;-33.858;151.184;2024-01-16T02:15:22;23.80;99.90
16441;DHT22;8330;-33.858;151.184;2024-01-16T02:17:53;24.00;99.90
16441;DHT22;8330;-33.858;151.184;2024-01-16T02:20:24;24.10;99.90
16441;DHT22;8330;-33.858;151.184;2024-01-16T02:22:56;24.30;99.90
16441;DHT22;8330;-33.858;151.184;2024-01-16T02:25:32;24.30;99.90
16441;DHT22;8330;-33.858;151.184;2024-01-16T02:28:03;24.40;99.90
16441;DHT22;8330;-33.858;151.184;2024-01-16T02:30:34;24.60;99.90
16441;DHT22;8330;-33.858;151.184;2024-01-16T02:33:05;24.80;99.90
16441;DHT22;8330;-33.858;151.184;2024-01-16T02:35:36;24.80;99.90
16441;DHT22;8330;-33.858;151.184;2024-01-16T02:38:06;25.00;99.90
16441;DHT22;8330;-33.858;151.184;2024-01-16T02:40:39;24.90;99.90
16441;DHT22;8330;-33.858;151.184;2024-01-16T02:43:10;25.10;99.90
16441;DHT22;8330;-33.858;151.184;2024-01-16T02:45:41;25.20;99.90
16441;DHT22;8330;-33.858;151.184;2024-01-16T02:48:11;25.30;99.90
16441;DHT22;8330;-33.858;151.184;2024-01-16T02:50:43;25.20;99.90
16441;DHT22;8330;-33.858;151.184;2024-01-16T02:53:14;25.10;99.90
16441;DHT22;8330;-33.858;151.184;2024-01-16T02:55:46;25.00;99.90
16441;DHT22;8330;-33.858;151.184;2024-01-16T02:58:17;24.90;99.90
16441;DHT22;8330;-33.858;151.184;2024-01-16T03:00:48;24.80;99.90
16441;DHT22;8330;-33.858;151.184;2024-01-16T03:03:18;24.80;99.90
16441;DHT22;8330;-33.858;151.184;2024-01-16T03:05:49;25.00;99.90
16441;DHT22;8330;-33.858;151.184;2024-01-16T03:08:20;25.20;99.90
16441;DHT22;8330;-33.858;151.184;2024-01-16T03:10:53;25.40;99.90
16441;DHT22;8330;-33.858;151.184;2024-01-16T03:13:24;25.60;99.90
16441;DHT22;8330;-33.858;151.184;2024-01-16T03:15:54;25.70;99.90
16441;DHT22;8330;-33.858;151.184;2024-01-16T03:18:25;25.70;99.90
16441;DHT22;8330;-33.858;151.184;2024-01-16T03:20:56;25.70;99.90
16441;DHT22;8330;-33.858;151.184;2024-01-16T03:23:28;25.50;99.90
16441;DHT22;8330;-33.858;151.184;2024-01-16T03:26:01;25.50;99.90
16441;DHT22;8330;-33.858;151.184;2024-01-16T03:28:31;25.50;99.90
16441;DHT22;8330;-33.858;151.184;2024-01-16T03:31:05;25.50;99.90
16441;DHT22;8330;-33.858;151.184;2024-01-16T03:33:36;25.40;99.90
16441;DHT22;8330;-33.858;151.184;2024-01-16T03:36:09;25.30;99.90
16441;DHT22;8330;-33.858;151.184;2024-01-16T03:38:42;25.20;99.90
16441;DHT22;8330;-33.858;151.184;2024-01-16T03:41:15;25.20;99.90
16441;DHT22;8330;-33.858;151.184;2024-01-16T03:43:45;25.10;99.90
16441;DHT22;8330;-33.858;151.184;2024-01-16T03:46:16;25.00;99.90
16441;DHT22;8330;-33.858;151.184;2024-01-16T03:48:47;25.00;99.90
16441;DHT22;8330;-33.858;151.184;2024-01-16T03:51:18;25.00;99.90
16441;DHT22;8330;-33.858;151.184;2024-01-16T03:53:48;25.10;99.90
16441;DHT22;8330;-33.858;151.184;2024-01-16T03:56:21;25.10;99.90
16441;DHT22;8330;-33.858;151.184;2024-01-16T03:58:52;25.10;99.90
16441;DHT22;8330;-33.858;151.184;2024-01-16T04:01:31;25.10;99.90
16441;DHT22;8330;-33.858;151.184;2024-01-16T04:04:04;25.10;99.90
16441;DHT22;8330;-33.858;151.184;2024-01-16T04:06:34;25.20;99.90
16441;DHT22;8330;-33.858;151.184;2024-01-16T04:09:05;25.20;99.90
16441;DHT22;8330;-33.858;151.184;2024-01-16T04:11:38;25.20;99.90
16441;DHT22;8330;-33.858;151.184;2024-01-16T04:14:09;25.20;99.90
16441;DHT22;8330;-33.858;151.184;2024-01-16T04:16:40;25.30;99.90
16441;DHT22;8330;-33.858;151.184;2024-01-16T04:19:10;25.30;99.90
16441;DHT22;8330;-33.858;151.184;2024-01-16T04:21:41;25.30;99.90
16441;DHT22;8330;-33.858;151.184;2024-01-16T04:24:12;25.30;99.90
16441;DHT22;8330;-33.858;151.184;2024-01-16T04:26:45;25.30;99.90
16441;DHT22;8330;-33.858;151.184;2024-01-16T04:29:16;25.40;99.90
16441;DHT22;8330;-33.858;151.184;2024-01-16T04:31:46;25.50;99.90
16441;DHT22;8330;-33.858;151.184;2024-01-16T04:34:17;25.50;99.90
16441;DHT22;8330;-33.858;151.184;2024-01-16T04:36:48;25.60;99.90
16441;DHT22;8330;-33.858;151.184;2024-01-16T04:39:19;25.70;99.90
16441;DHT22;8330;-33.858;151.184;2024-01-16T04:41:52;25.80;99.90
16441;DHT22;8330;-33.858;151.184;2024-01-16T04:44:22;25.90;99.90
16441;DHT22;8330;-33.858;151.184;2024-01-16T04:46:53;25.80;99.90
16441;DHT22;8330;-33.858;151.184;2024-01-16T04:49:24;25.80;99.90
16441;DHT22;8330;-33.858;151.184;2024-01-16T04:51:55;25.70;99.90
16441;DHT22;8330;-33.858;151.184;2024-01-16T04:54:25;25.70;99.90
16441;DHT22;8330;-33.858;151.184;2024-01-16T04:56:58;25.70;99.90
16441;DHT22;8330;-33.858;151.184;2024-01-16T04:59:29;25.70;99.90
16441;DHT22;8330;-33.858;151.184;2024-01-16T05:02:00;25.50;99.90
16441;DHT22;8330;-33.858;151.184;2024-01-16T05:04:31;25.50;99.90
16441;DHT22;8330;-33.858;151.184;2024-01-16T05:07:01;25.60;99.90
16441;DHT22;8330;-33.858;151.184;2024-01-16T05:09:32;25.60;99.90
16441;DHT22;8330;-33.858;151.184;2024-01-16T05:12:05;25.60;99.90
16441;DHT22;8330;-33.858;151.184;2024-01-16T05:14:36;25.60;99.90
16441;DHT22;8330;-33.858;151.184;2024-01-16T05:17:07;25.50;99.90
16441;DHT22;8330;-33.858;151.184;2024-01-16T05:19:38;25.50;99.90
16441;DHT22;8330;-33.858;151.184;2024-01-16T05:22:11;25.40;99.90
16441;DHT22;8330;-33.858;151.184;2024-01-16T05:24:41;25.30;99.90
16441;DHT22;8330;-33.858;151.184;2024-01-16T05:27:17;25.20;99.90
16441;DHT22;8330;-33.858;151.184;2024-01-16T05:29:47;25.20;99.90
16441;DHT22;8330;-33.858;151.184;2024-01-16T05:32:18;25.00;99.90
16441;DHT22;8330;-33.858;151.184;2024-01-16T05:34:49;24.80;99.90
16441;DHT22;8330;-33.858;151.184;2024-01-16T05:37:20;24.70;99.90
16441;DHT22;8330;-33.858;151.184;2024-01-16T05:39:50;24.50;99.90
16441;DHT22;8330;-33.858;151.184;2024-01-16T05:42:23;24.50;99.90
16441;DHT22;8330;-33.858;151.184;2024-01-16T05:44:54;24.50;99.90
16441;DHT22;8330;-33.858;151.184;2024-01-16T05:47:24;24.50;99.90
16441;DHT22;8330;-33.858;151.184;2024-01-16T05:49:56;24.50;99.90
16441;DHT22;8330;-33.858;151.184;2024-01-16T05:52:29;24.50;99.90
16441;DHT22;8330;-33.858;151.184;2024-01-16T05:54:59;24.50;99.90
16441;DHT22;8330;-33.858;151.184;2024-01-16T05:57:32;24.50;99.90
16441;DHT22;8330;-33.858;151.184;2024-01-16T06:00:04;24.50;99.90
16441;DHT22;8330;-33.858;151.184;2024-01-16T06:02:34;24.60;99.90
16441;DHT22;8330;-33.858;151.184;2024-01-16T06:05:05;24.60;99.90
16441;DHT22;8330;-33.858;151.184;2024-01-16T06:07:36;24.70;99.90
16441;DHT22;8330;-33.858;151.184;2024-01-16T06:10:08;24.70;99.90
16441;DHT22;8330;-33.858;151.184;2024-01-16T06:12:41;24.80;99.90
16441;DHT22;8330;-33.858;151.184;2024-01-16T06:15:11;24.90;99.90
16441;DHT22;8330;-33.858;151.184;2024-01-16T06:17:42;24.90;99.90
16441;DHT22;8330;-33.858;151.184;2024-01-16T06:20:13;24.80;99.90
16441;DHT22;8330;-33.858;151.184;2024-01-16T06:22:44;24.80;99.90
16441;DHT22;8330;-33.858;151.184;2024-01-16T06:25:14;24.80;99.90
16441;DHT22;8330;-33.858;151.184;2024-01-16T06:27:50;24.90;99.90
16441;DHT22;8330;-33.858;151.184;2024-01-16T06:30:21;24.90;99.90
16441;DHT22;8330;-33.858;151.184;2024-01-16T06:32:52;24.90;99.90
16441;DHT22;8330;-33.858;151.184;2024-01-16T06:35:22;25.00;99.90
16441;DHT22;8330;-33.858;151.184;2024-01-16T06:37:53;25.00;99.90
16441;DHT22;8330;-33.858;151.184;2024-01-16T06:40:24;25.10;99.90
16441;DHT22;8330;-33.858;151.184;2024-01-16T06:42:56;25.20;99.90
16441;DHT22;8330;-33.858;151.184;2024-01-16T06:45:27;25.20;99.90
16441;DHT22;8330;-33.858;151.184;2024-01-16T06:47:58;25.30;99.90
16441;DHT22;8330;-33.858;151.184;2024-01-16T06:50:31;25.30;99.90
16441;DHT22;8330;-33.858;151.184;2024-01-16T06:53:05;25.30;99.90
16441;DHT22;8330;-33.858;151.184;2024-01-16T06:55:36;25.50;99.90
16441;DHT22;8330;-33.858;151.184;2024-01-16T06:58:08;25.50;99.90
16441;DHT22;8330;-33.858;151.184;2024-01-16T07:00:39;25.50;99.90
16441;DHT22;8330;-33.858;151.184;2024-01-16T07:03:10;25.50;99.90
16441;DHT22;8330;-33.858;151.184;2024-01-16T07:05:41;25.50;99.90
16441;DHT22;8330;-33.858;151.184;2024-01-16T07:08:11;25.50;99.90
16441;DHT22;8330;-33.858;151.184;2024-01-16T07:10:45;25.60;99.90
16441;DHT22;8330;-33.858;151.184;2024-01-16T07:13:17;25.60;99.90
16441;DHT22;8330;-33.858;151.184;2024-01-16T07:15:48;25.70;99.90
16441;DHT22;8330;-33.858;151.184;2024-01-16T07:18:19;25.80;99.90
16441;DHT22;8330;-33.858;151.184;2024-01-16T07:20:50;25.80;99.90
16441;DHT22;8330;-33.858;151.184;2024-01-16T07:23:20;25.80;99.90
16441;DHT22;8330;-33.858;151.184;2024-01-16T07:25:51;25.80;99.90
16441;DHT22;8330;-33.858;151.184;2024-01-16T07:28:24;25.80;99.90
16441;DHT22;8330;-33.858;151.184;2024-01-16T07:30:55;25.70;99.90
16441;DHT22;8330;-33.858;151.184;2024-01-16T07:33:25;25.70;99.90
16441;DHT22;8330;-33.858;151.184;2024-01-16T07:35:56;25.60;99.90
16441;DHT22;8330;-33.858;151.184;2024-01-16T07:38:27;25.60;99.90
16441;DHT22;8330;-33.858;151.184;2024-01-16T07:40:58;25.50;99.90
16441;DHT22;8330;-33.858;151.184;2024-01-16T07:43:30;25.50;99.90
16441;DHT22;8330;-33.858;151.184;2024-01-16T07:46:02;25.50;99.90
16441;DHT22;8330;-33.858;151.184;2024-01-16T07:48:32;25.40;99.90
16441;DHT22;8330;-33.858;151.184;2024-01-16T07:51:03;25.40;99.90
16441;DHT22;8330;-33.858;151.184;2024-01-16T07:53:34;25.40;99.90
16441;DHT22;8330;-33.858;151.184;2024-01-16T07:56:05;25.40;99.90
16441;DHT22;8330;-33.858;151.184;2024-01-16T07:58:38;25.30;99.90
16441;DHT22;8330;-33.858;151.184;2024-01-16T08:01:09;25.30;99.90
16441;DHT22;8330;-33.858;151.184;2024-01-16T08:03:40;25.30;99.90
16441;DHT22;8330;-33.858;151.184;2024-01-16T08:06:11;25.30;99.90
16441;DHT22;8330;-33.858;151.184;2024-01-16T08:08:41;25.20;99.90
16441;DHT22;8330;-33.858;151.184;2024-01-16T08:11:12;25.20;99.90
16441;DHT22;8330;-33.858;151.184;2024-01-16T08:13:45;25.20;99.90
16441;DHT22;8330;-33.858;151.184;2024-01-16T08:16:16;25.20;99.90
16441;DHT22;8330;-33.858;151.184;2024-01-16T08:18:46;25.20;99.90
16441;DHT22;8330;-33.858;151.184;2024-01-16T08:21:17;25.20;99.90
16441;DHT22;8330;-33.858;151.184;2024-01-16T08:23:48;25.20;99.90
16441;DHT22;8330;-33.858;151.184;2024-01-16T08:26:19;25.20;99.90
16441;DHT22;8330;-33.858;151.184;2024-01-16T08:28:51;25.10;99.90
16441;DHT22;8330;-33.858;151.184;2024-01-16T08:31:22;25.10;99.90
16441;DHT22;8330;-33.858;151.184;2024-01-16T08:33:55;25.10;99.90
16441;DHT22;8330;-33.858;151.184;2024-01-16T08:36:26;25.10;99.90
16441;DHT22;8330;-33.858;151.184;2024-01-16T08:38:57;25.10;99.90
16441;DHT22;8330;-33.858;151.184;2024-01-16T08:41:27;25.00;99.90
16441;DHT22;8330;-33.858;151.184;2024-01-16T08:44:00;25.00;99.90
16441;DHT22;8330;-33.858;151.184;2024-01-16T08:46:31;25.00;99.90
16441;DHT22;8330;-33.858;151.184;2024-01-16T08:49:05;25.00;99.90
16441;DHT22;8330;-33.858;151.184;2024-01-16T08:51:37;24.90;99.90
16441;DHT22;8330;-33.858;151.184;2024-01-16T08:54:09;24.90;99.90
16441;DHT22;8330;-33.858;151.184;2024-01-16T08:56:39;24.90;99.90
16441;DHT22;8330;-33.858;151.184;2024-01-16T08:59:12;24.90;99.90
16441;DHT22;8330;-33.858;151.184;2024-01-16T09:01:43;24.90;99.90
16441;DHT22;8330;-33.858;151.184;2024-01-16T09:04:13;24.90;99.90
16441;DHT22;8330;-33.858;151.184;2024-01-16T09:06:44;24.80;99.90
16441;DHT22;8330;-33.858;151.184;2024-01-16T09:09:15;24.90;99.90
16441;DHT22;8330;-33.858;151.184;2024-01-16T09:11:46;24.80;99.90
16441;DHT22;8330;-33.858;151.184;2024-01-16T09:14:18;24.80;99.90
16441;DHT22;8330;-33.858;151.184;2024-01-16T09:16:49;24.80;99.90
16441;DHT22;8330;-33.858;151.184;2024-01-16T09:19:21;24.80;99.90
16441;DHT22;8330;-33.858;151.184;2024-01-16T09:21:55;24.80;99.90
16441;DHT22;8330;-33.858;151.184;2024-01-16T09:24:26;24.80;99.90
16441;DHT22;8330;-33.858;151.184;2024-01-16T09:27:00;24.80;99.90
16441;DHT22;8330;-33.858;151.184;2024-01-16T09:29:36;24.80;99.90
16441;DHT22;8330;-33.858;151.184;2024-01-16T09:32:09;24.80;99.90
16441;DHT22;8330;-33.858;151.184;2024-01-16T09:34:40;24.80;99.90
16441;DHT22;8330;-33.858;151.184;2024-01-16T09:37:11;24.80;99.90
16441;DHT22;8330;-33.858;151.184;2024-01-16T09:39:42;24.80;99.90
16441;DHT22;8330;-33.858;151.184;2024-01-16T09:42:13;24.80;99.90
16441;DHT22;8330;-33.858;151.184;2024-01-16T09:44:46;24.80;99.90
16441;DHT22;8330;-33.858;151.184;2024-01-16T09:47:18;24.70;99.90
16441;DHT22;8330;-33.858;151.184;2024-01-16T09:49:49;24.70;99.90
16441;DHT22;8330;-33.858;151.184;2024-01-16T09:52:20;24.70;99.90
16441;DHT22;8330;-33.858;151.184;2024-01-16T09:54:52;24.70;99.90
16441;DHT22;8330;-33.858;151.184;2024-01-16T09:57:24;24.70;99.90
16441;DHT22;8330;-33.858;151.184;2024-01-16T09:59:58;24.70;99.90
16441;DHT22;8330;-33.858;151.184;2024-01-16T10:02:31;24.70;99.90
16441;DHT22;8330;-33.858;151.184;2024-01-16T10:05:02;24.70;99.90
16441;DHT22;8330;-33.858;151.184;2024-01-16T10:07:34;24.70;99.90
16441;DHT22;8330;-33.858;151.184;2024-01-16T10:10:05;24.60;99.90
16441;DHT22;8330;-33.858;151.184;2024-01-16T10:12:39;24.60;99.90
16441;DHT22;8330;-33.858;151.184;2024-01-16T10:15:15;24.60;99.90
16441;DHT22;8330;-33.858;151.184;2024-01-16T10:17:46;24.50;99.90
16441;DHT22;8330;-33.858;151.184;2024-01-16T10:20:16;24.60;99.90
16441;DHT22;8330;-33.858;151.184;2024-01-16T10:23:01;24.50;99.90
16441;DHT22;8330;-33.858;151.184;2024-01-16T10:25:33;24.50;99.90
16441;DHT22;8330;-33.858;151.184;2024-01-16T10:28:05;24.50;99.90
16441;DHT22;8330;-33.858;151.184;2024-01-16T10:30:44;24.50;99.90
16441;DHT22;8330;-33.858;151.184;2024-01-16T10:33:15;24.50;99.90
16441;DHT22;8330;-33.858;151.184;2024-01-16T10:35:46;24.50;99.90
16441;DHT22;8330;-33.858;151.184;2024-01-16T10:38:21;24.50;99.90
16441;DHT22;8330;-33.858;151.184;2024-01-16T10:41:07;24.50;99.90
16441;DHT22;8330;-33.858;151.184;2024-01-16T10:43:39;24.50;99.90
16441;DHT22;8330;-33.858;151.184;2024-01-16T10:46:15;24.50;99.90
16441;DHT22;8330;-33.858;151.184;2024-01-16T10:48:58;24.40;99.90
16441;DHT22;8330;-33.858;151.184;2024-01-16T10:51:30;24.40;99.90
16441;DHT22;8330;-33.858;151.184;2024-01-16T10:54:02;24.40;99.90
16441;DHT22;8330;-33.858;151.184;2024-01-16T10:56:33;24.40;99.90
16441;DHT22;8330;-33.858;151.184;2024-01-16T10:59:08;24.40;99.90
16441;DHT22;8330;-33.858;151.184;2024-01-16T11:01:48;24.40;99.90
16441;DHT22;8330;-33.858;151.184;2024-01-16T11:04:21;24.40;99.90
16441;DHT22;8330;-33.858;151.184;2024-01-16T11:06:55;24.40;99.90
16441;DHT22;8330;-33.858;151.184;2024-01-16T11:09:29;24.40;99.90
16441;DHT22;8330;-33.858;151.184;2024-01-16T11:12:01;24.40;99.90
16441;DHT22;8330;-33.858;151.184;2024-01-16T11:14:32;24.40;99.90
16441;DHT22;8330;-33.858;151.184;2024-01-16T11:17:06;24.50;99.90
16441;DHT22;8330;-33.858;151.184;2024-01-16T11:19:41;24.50;99.90
16441;DHT22;8330;-33.858;151.184;2024-01-16T11:22:12;24.50;99.90
16441;DHT22;8330;-33.858;151.184;2024-01-16T11:24:44;24.50;99.90
16441;DHT22;8330;-33.858;151.184;2024-01-16T11:27:23;24.50;99.90
16441;DHT22;8330;-33.858;151.184;2024-01-16T11:29:54;24.50;99.90
16441;DHT22;8330;-33.858;151.184;2024-01-16T11:32:37;24.50;99.90
16441;DHT22;8330;-33.858;151.184;2024-01-16T11:35:09;24.50;99.90
16441;DHT22;8330;-33.858;151.184;2024-01-16T11:37:41;24.50;99.90
16441;DHT22;8330;-33.858;151.184;2024-01-16T11:40:33;24.50;99.90
16441;DHT22;8330;-33.858;151.184;2024-01-16T11:43:36;24.50;99.90
16441;DHT22;8330;-33.858;151.184;2024-01-16T11:46:07;24.40;99.90
16441;DHT22;8330;-33.858;151.184;2024-01-16T11:48:40;24.50;99.90
16441;DHT22;8330;-33.858;151.184;2024-01-16T11:51:26;24.40;99.90
16441;DHT22;8330;-33.858;151.184;2024-01-16T11:53:58;24.40;99.90
16441;DHT22;8330;-33.858;151.184;2024-01-16T11:56:51;24.40;99.90
16441;DHT22;8330;-33.858;151.184;2024-01-16T12:02:38;24.40;99.90
16441;DHT22;8330;-33.858;151.184;2024-01-16T12:05:14;24.40;99.90
16441;DHT22;8330;-33.858;151.184;2024-01-16T12:07:46;24.40;99.90
16441;DHT22;8330;-33.858;151.184;2024-01-16T12:10:19;24.40;99.90
16441;DHT22;8330;-33.858;151.184;2024-01-16T12:12:50;24.40;99.90
16441;DHT22;8330;-33.858;151.184;2024-01-16T12:15:22;24.40;99.90
16441;DHT22;8330;-33.858;151.184;2024-01-16T12:17:54;24.50;99.90
16441;DHT22;8330;-33.858;151.184;2024-01-16T12:20:29;24.40;99.90
16441;DHT22;8330;-33.858;151.184;2024-01-16T12:23:00;24.40;99.90
16441;DHT22;8330;-33.858;151.184;2024-01-16T12:25:32;24.40;99.90
16441;DHT22;8330;-33.858;151.184;2024-01-16T12:28:04;24.40;99.90
16441;DHT22;8330;-33.858;151.184;2024-01-16T12:30:35;24.40;99.90
16441;DHT22;8330;-33.858;151.184;2024-01-16T12:33:09;24.40;99.90
16441;DHT22;8330;-33.858;151.184;2024-01-16T12:35:43;24.40;99.90
16441;DHT22;8330;-33.858;151.184;2024-01-16T12:38:14;24.40;99.90
16441;DHT22;8330;-33.858;151.184;2024-01-16T12:40:47;24.50;99.90
16441;DHT22;8330;-33.858;151.184;2024-01-16T12:43:19;24.40;99.90
16441;DHT22;8330;-33.858;151.184;2024-01-16T12:45:56;24.50;99.90
16441;DHT22;8330;-33.858;151.184;2024-01-16T12:48:27;24.50;99.90
16441;DHT22;8330;-33.858;151.184;2024-01-16T12:51:02;24.50;99.90
16441;DHT22;8330;-33.858;151.184;2024-01-16T12:53:34;24.50;99.90
16441;DHT22;8330;-33.858;151.184;2024-01-16T12:56:07;24.50;99.90
16441;DHT22;8330;-33.858;151.184;2024-01-16T12:58:39;24.50;99.90
16441;DHT22;8330;-33.858;151.184;2024-01-16T13:01:26;24.50;99.90
16441;DHT22;8330;-33.858;151.184;2024-01-16T13:03:57;24.50;99.90
16441;DHT22;8330;-33.858;151.184;2024-01-16T13:06:30;24.50;99.90
16441;DHT22;8330;-33.858;151.184;2024-01-16T13:09:06;24.50;99.90
16441;DHT22;8330;-33.858;151.184;2024-01-16T13:11:50;24.50;99.90
16441;DHT22;8330;-33.858;151.184;2024-01-16T13:14:23;24.50;99.90
16441;DHT22;8330;-33.858;151.184;2024-01-16T13:16:54;24.50;99.90
16441;DHT22;8330;-33.858;151.184;2024-01-16T13:19:25;24.50;99.90
16441;DHT22;8330;-33.858;151.184;2024-01-16T13:21:59;24.50;99.90
16441;DHT22;8330;-33.858;151.184;2024-01-16T13:24:30;24.50;99.90
16441;DHT22;8330;-33.858;151.184;2024-01-16T13:27:01;24.50;99.90
16441;DHT22;8330;-33.858;151.184;2024-01-16T13:29:32;24.50;99.90
16441;DHT22;8330;-33.858;151.184;2024-01-16T13:32:06;24.50;99.90
16441;DHT22;8330;-33.858;151.184;2024-01-16T13:34:37;24.50;99.90
16441;DHT22;8330;-33.858;151.184;2024-01-16T13:37:20;24.50;99.90
16441;DHT22;8330;-33.858;151.184;2024-01-16T13:39:56;24.50;99.90
16441;DHT22;8330;-33.858;151.184;2024-01-16T13:42:27;24.50;99.90
16441;DHT22;8330;-33.858;151.184;2024-01-16T13:44:58;24.50;99.90
16441;DHT22;8330;-33.858;151.184;2024-01-16T13:47:29;24.50;99.90
16441;DHT22;8330;-33.858;151.184;2024-01-16T13:49:59;24.50;99.90
16441;DHT22;8330;-33.858;151.184;2024-01-16T13:52:33;24.50;99.90
16441;DHT22;8330;-33.858;151.184;2024-01-16T13:55:04;24.50;99.90
16441;DHT22;8330;-33.858;151.184;2024-01-16T13:57:35;24.50;99.90
16441;DHT22;8330;-33.858;151.184;2024-01-16T14:00:06;24.40;99.90
16441;DHT22;8330;-33.858;151.184;2024-01-16T14:02:41;24.40;99.90
16441;DHT22;8330;-33.858;151.184;2024-01-16T14:05:12;24.40;99.90
16441;DHT22;8330;-33.858;151.184;2024-01-16T14:07:47;24.40;99.90
16441;DHT22;8330;-33.858;151.184;2024-01-16T14:10:20;24.40;99.90
16441;DHT22;8330;-33.858;151.184;2024-01-16T14:12:52;24.30;99.90
16441;DHT22;8330;-33.858;151.184;2024-01-16T14:15:23;24.30;99.90
16441;DHT22;8330;-33.858;151.184;2024-01-16T14:17:54;24.30;99.90
16441;DHT22;8330;-33.858;151.184;2024-01-16T14:20:26;24.30;99.90
16441;DHT22;8330;-33.858;151.184;2024-01-16T14:22:58;24.30;99.90
16441;DHT22;8330;-33.858;151.184;2024-01-16T14:25:32;24.30;99.90
16441;DHT22;8330;-33.858;151.184;2024-01-16T14:28:03;24.30;99.90
16441;DHT22;8330;-33.858;151.184;2024-01-16T14:30:34;24.20;99.90
16441;DHT22;8330;-33.858;151.184;2024-01-16T14:33:06;24.10;99.90
16441;DHT22;8330;-33.858;151.184;2024-01-16T14:35:36;24.10;99.90
16441;DHT22;8330;-33.858;151.184;2024-01-16T14:38:09;24.10;99.90
16441;DHT22;8330;-33.858;151.184;2024-01-16T14:40:39;24.10;99.90
16441;DHT22;8330;-33.858;151.184;2024-01-16T14:43:10;24.10;99.90
16441;DHT22;8330;-33.858;151.184;2024-01-16T14:45:43;24.10;99.90
16441;DHT22;8330;-33.858;151.184;2024-01-16T14:48:14;24.10;99.90
16441;DHT22;8330;-33.858;151.184;2024-01-16T14:50:45;24.00;99.90
16441;DHT22;8330;-33.858;151.184;2024-01-16T14:53:18;24.00;99.90
16441;DHT22;8330;-33.858;151.184;2024-01-16T14:55:49;24.10;99.90
16441;DHT22;8330;-33.858;151.184;2024-01-16T14:58:21;24.10;99.90
16441;DHT22;8330;-33.858;151.184;2024-01-16T15:00:52;24.00;99.90
16441;DHT22;8330;-33.858;151.184;2024-01-16T15:03:24;24.00;99.90
16441;DHT22;8330;-33.858;151.184;2024-01-16T15:05:54;24.00;99.90
16441;DHT22;8330;-33.858;151.184;2024-01-16T15:08:27;24.10;99.90
16441;DHT22;8330;-33.858;151.184;2024-01-16T15:10:59;24.00;99.90
16441;DHT22;8330;-33.858;151.184;2024-01-16T15:13:30;24.10;99.90
16441;DHT22;8330;-33.858;151.184;2024-01-16T15:16:01;24.10;99.90
16441;DHT22;8330;-33.858;151.184;2024-01-16T15:18:32;24.10;99.90
16441;DHT22;8330;-33.858;151.184;2024-01-16T15:21:03;24.10;99.90
16441;DHT22;8330;-33.858;151.184;2024-01-16T15:23:36;24.10;99.90
16441;DHT22;8330;-33.858;151.184;2024-01-16T15:26:07;24.10;99.90
16441;DHT22;8330;-33.858;151.184;2024-01-16T15:28:38;24.20;99.90
16441;DHT22;8330;-33.858;151.184;2024-01-16T15:31:09;24.10;99.90
16441;DHT22;8330;-33.858;151.184;2024-01-16T15:33:41;24.10;99.90
16441;DHT22;8330;-33.858;151.184;2024-01-16T15:36:11;24.10;99.90